Time;durP1;ratioP1;P1;durP2;ratioP2;P2;SDS_P1;SDS_P2;PMS_P1;PMS_P2;Temp;Humidity;BMP_temperature;BMP_pressure;BME280_temperature;BME280_humidity;BME280_pressure;Samples;Min_cycle;Max_cycle;Signal;HPM_P1;HPM_P2
2021/07/04 00:01:53;;;;;;;11.82;9.18;;;;;;;19.18;60.54;100067.72;10314584;28;20274;-76
2021/07/04 00:06:56;;;;;;;10.70;9.05;;;;;;;19.32;60.35;100063.31;10310429;28;20278;-76
2021/07/04 00:11:59;;;;;;;9.68;8.60;;;;;;;19.23;60.09;100071.59;10313306;28;20281;-75
2021/07/04 00:17:04;;;;;;;8.63;7.60;;;;;;;19.10;60.53;100065.94;10312728;28;20289;-75
2021/07/04 00:22:07;;;;;;;10.77;8.30;;;;;;;18.88;61.34;100080.50;10311252;28;20258;-77
2021/07/04 00:27:09;;;;;;;11.30;8.35;;;;;;;18.81;61.69;100069.47;10310113;28;20917;-76
2021/07/04 00:32:14;;;;;;;10.85;8.13;;;;;;;18.92;61.53;100070.91;10309926;28;20227;-76
2021/07/04 00:37:16;;;;;;;8.55;7.72;;;;;;;19.06;61.22;100064.66;10311266;28;20277;-76
2021/07/04 00:42:19;;;;;;;11.85;8.00;;;;;;;19.08;61.19;100061.72;10312058;28;20242;-76
2021/07/04 00:47:24;;;;;;;11.38;8.10;;;;;;;19.23;60.83;100055.25;10310393;28;20239;-76
2021/07/04 00:52:27;;;;;;;11.38;8.35;;;;;;;19.26;60.88;100054.03;10323711;28;20380;-76
2021/07/04 00:57:32;;;;;;;12.32;8.25;;;;;;;19.27;60.99;100044.81;10306168;28;20235;-76
2021/07/04 01:02:37;;;;;;;12.90;9.82;;;;;;;19.30;61.24;100051.75;10307875;28;20822;-76
2021/07/04 01:07:44;;;;;;;14.15;10.90;;;;;;;19.13;61.75;100051.94;10309595;28;20243;-76
2021/07/04 01:12:50;;;;;;;13.93;10.50;;;;;;;19.15;61.93;100049.91;10309240;28;20334;-76
2021/07/04 01:17:58;;;;;;;13.63;10.40;;;;;;;19.19;61.72;100037.56;10305747;28;20783;-76
2021/07/04 01:23:06;;;;;;;11.50;9.48;;;;;;;19.14;62.00;100042.78;10307752;28;21533;-76
2021/07/04 01:28:12;;;;;;;12.88;10.38;;;;;;;19.07;62.55;100033.66;10322013;28;20339;-76
2021/07/04 01:33:17;;;;;;;12.65;10.70;;;;;;;18.89;63.28;100027.75;10325408;28;20246;-76
2021/07/04 01:38:21;;;;;;;14.27;11.07;;;;;;;18.65;63.86;100031.53;10312078;28;20245;-76
2021/07/04 01:43:25;;;;;;;16.38;11.57;;;;;;;18.50;63.92;100035.06;10326110;28;20322;-76
2021/07/04 01:48:29;;;;;;;13.60;11.00;;;;;;;18.48;63.69;100025.41;10314492;28;20730;-76
2021/07/04 01:53:38;;;;;;;13.25;10.70;;;;;;;18.34;63.78;100022.47;10327700;28;20748;-77
2021/07/04 01:58:50;;;;;;;13.38;11.07;;;;;;;18.36;63.99;100023.13;10312785;28;20366;-76
2021/07/04 02:04:11;;;;;;;16.13;10.93;;;;;;;18.36;64.03;100016.88;10307966;28;20235;-74
2021/07/04 02:09:19;;;;;;;15.90;11.73;;;;;;;18.36;63.95;100022.31;10321818;28;20234;-74
2021/07/04 02:14:22;;;;;;;12.45;10.48;;;;;;;18.25;64.45;100023.59;10321764;28;20231;-74
2021/07/04 02:19:42;;;;;;;15.13;10.95;;;;;;;18.19;64.86;100013.44;10320519;28;20234;-74
2021/07/04 02:25:00;;;;;;;13.73;10.68;;;;;;;18.21;64.98;100013.25;10313103;28;20249;-75
2021/07/04 02:30:11;;;;;;;17.17;11.50;;;;;;;18.06;65.22;100013.22;10329440;28;20253;-74
2021/07/04 02:35:16;;;;;;;14.15;10.60;;;;;;;17.91;65.88;100013.97;10313472;28;20623;-74
2021/07/04 02:40:21;;;;;;;13.25;10.57;;;;;;;17.99;65.92;100004.09;10313927;28;20712;-74
2021/07/04 02:45:28;;;;;;;15.75;11.02;;;;;;;17.95;65.90;100003.59;10312188;28;20239;-74
2021/07/04 02:50:44;;;;;;;15.38;11.93;;;;;;;18.19;65.14;100018.06;10329539;28;20324;-75
2021/07/04 02:55:49;;;;;;;13.50;11.27;;;;;;;18.07;65.50;100013.06;10327618;28;20754;-75
2021/07/04 03:00:54;;;;;;;15.23;11.70;;;;;;;17.97;66.17;100007.00;10316766;28;20227;-75
2021/07/04 03:05:57;;;;;;;18.17;11.38;;;;;;;17.91;66.15;100005.84;10312970;28;20235;-75
2021/07/04 03:11:03;;;;;;;16.90;12.00;;;;;;;17.86;65.75;100010.13;10308907;28;20274;-75
2021/07/04 03:16:11;;;;;;;14.48;11.07;;;;;;;17.83;65.89;100005.88;10325115;28;20261;-76
2021/07/04 03:21:16;;;;;;;14.98;11.15;;;;;;;17.90;65.80;100014.16;10326809;28;20231;-75
2021/07/04 03:26:21;;;;;;;14.00;10.93;;;;;;;17.99;65.20;100015.84;10312377;28;20239;-76
2021/07/04 03:31:28;;;;;;;15.00;10.68;;;;;;;17.83;65.44;100010.50;10325661;28;20241;-76
2021/07/04 03:36:31;;;;;;;15.02;11.07;;;;;;;17.79;65.34;100009.97;10308766;28;20231;-76
2021/07/04 03:41:36;;;;;;;15.93;11.98;;;;;;;17.66;65.38;100007.88;10326004;28;20316;-76
2021/07/04 03:46:40;;;;;;;18.25;11.55;;;;;;;17.54;65.40;100006.59;10325357;28;20259;-76
2021/07/04 03:51:43;;;;;;;19.83;11.43;;;;;;;17.51;65.59;100006.94;10311387;28;20329;-75
2021/07/04 03:56:50;;;;;;;14.95;11.30;;;;;;;17.50;65.58;100009.81;10325248;28;20249;-75
2021/07/04 04:01:53;;;;;;;15.68;11.68;;;;;;;17.42;66.71;100003.44;10310855;28;20242;-76
2021/07/04 04:06:57;;;;;;;16.33;11.52;;;;;;;17.30;68.74;99999.41;10308566;28;20231;-75
2021/07/04 04:12:02;;;;;;;14.82;11.13;;;;;;;17.18;69.36;100001.69;10323695;28;20242;-76
2021/07/04 04:17:10;;;;;;;14.35;11.23;;;;;;;17.27;70.09;99999.78;10306444;28;20599;-75
2021/07/04 04:22:17;;;;;;;15.25;10.80;;;;;;;17.32;70.52;100001.97;10311209;28;20260;-75
2021/07/04 04:27:25;;;;;;;18.77;11.77;;;;;;;17.43;69.82;99994.25;10326050;28;21469;-75
2021/07/04 04:32:28;;;;;;;14.35;10.80;;;;;;;17.63;69.41;99991.06;10325008;28;20262;-75
2021/07/04 04:37:31;;;;;;;16.55;11.25;;;;;;;17.74;69.46;100000.69;10307648;28;20238;-76
2021/07/04 04:42:36;;;;;;;14.52;11.52;;;;;;;17.77;68.75;99993.03;10308196;28;20238;-76
2021/07/04 04:47:39;;;;;;;15.40;11.13;;;;;;;17.81;68.43;100002.50;10307652;28;21548;-75
2021/07/04 04:52:42;;;;;;;16.75;11.15;;;;;;;17.82;68.02;99998.75;10308974;28;20239;-75
2021/07/04 04:57:47;;;;;;;16.17;11.57;;;;;;;17.95;67.36;99998.16;10307383;28;20373;-76
2021/07/04 05:02:50;;;;;;;14.52;11.15;;;;;;;18.19;66.90;99997.16;10322040;28;20878;-76
2021/07/04 05:07:55;;;;;;;15.02;10.65;;;;;;;18.32;65.79;99996.50;10322450;28;20366;-75
2021/07/04 05:13:00;;;;;;;15.30;11.02;;;;;;;18.35;65.41;99999.72;10308445;28;20235;-75
2021/07/04 05:18:05;;;;;;;13.63;10.48;;;;;;;18.41;65.34;99997.28;10306916;28;20848;-75
2021/07/04 05:23:09;;;;;;;12.98;10.57;;;;;;;18.30;65.64;99998.56;10307214;28;21413;-75
2021/07/04 05:28:13;;;;;;;13.43;10.07;;;;;;;18.28;65.91;99997.91;10306122;28;20238;-76
2021/07/04 05:33:16;;;;;;;15.77;11.43;;;;;;;18.17;66.05;99995.63;10308422;28;20239;-75
2021/07/04 05:38:20;;;;;;;14.38;10.73;;;;;;;18.25;66.21;99996.41;10308016;28;20239;-75
2021/07/04 05:43:24;;;;;;;14.70;10.15;;;;;;;18.30;65.89;99985.81;10307782;28;20234;-75
2021/07/04 05:48:28;;;;;;;13.80;10.77;;;;;;;18.45;66.23;99985.84;10322485;28;20243;-76
2021/07/04 05:53:31;;;;;;;15.73;10.93;;;;;;;18.53;65.80;99976.75;10307100;28;20775;-76
2021/07/04 05:58:36;;;;;;;15.43;10.32;;;;;;;18.51;65.62;99993.28;10308470;28;20246;-75
2021/07/04 06:03:39;;;;;;;14.00;10.57;;;;;;;18.42;65.87;99991.66;10308384;28;20254;-75
2021/07/04 06:08:42;;;;;;;16.23;10.80;;;;;;;18.39;65.85;99992.03;10306133;28;20662;-75
2021/07/04 06:13:46;;;;;;;16.52;10.82;;;;;;;18.54;66.29;99994.75;10321471;28;20846;-73
2021/07/04 06:18:49;;;;;;;14.95;10.70;;;;;;;18.63;65.77;99974.63;10307504;28;20318;-74
2021/07/04 06:23:52;;;;;;;13.05;10.23;;;;;;;18.68;65.55;99988.50;10306056;28;20242;-73
2021/07/04 06:28:56;;;;;;;15.25;10.48;;;;;;;18.92;65.01;99992.00;10306526;28;20724;-72
2021/07/04 06:33:59;;;;;;;15.40;10.25;;;;;;;19.09;64.56;99989.91;10325379;28;20243;-73
2021/07/04 06:39:02;;;;;;;14.80;10.75;;;;;;;19.24;63.35;99986.13;10308826;28;20242;-73
2021/07/04 06:44:06;;;;;;;14.40;9.73;;;;;;;19.49;62.74;99987.69;10304691;28;20900;-73
2021/07/04 06:49:09;;;;;;;12.35;10.00;;;;;;;19.78;62.63;99994.94;10304884;28;20231;-73
2021/07/04 06:54:12;;;;;;;11.85;10.07;;;;;;;20.14;61.29;99997.59;10304905;28;20234;-74
2021/07/04 06:59:17;;;;;;;14.05;9.88;;;;;;;20.43;60.67;99990.28;10305425;28;20254;-73
2021/07/04 07:04:20;;;;;;;11.98;9.27;;;;;;;20.66;60.49;99990.03;10304690;28;20243;-73
2021/07/04 07:09:23;;;;;;;11.50;9.57;;;;;;;20.87;59.43;99980.91;10307267;28;20313;-71
2021/07/04 07:14:27;;;;;;;16.77;10.38;;;;;;;21.19;57.85;99965.78;10313804;28;20277;-72
2021/07/04 07:19:30;;;;;;;15.10;9.73;;;;;;;21.39;58.03;99965.84;10326173;28;21488;-71
2021/07/04 07:24:35;;;;;;;12.80;10.52;;;;;;;21.87;56.33;99973.97;10312222;28;20234;-73
2021/07/04 07:29:39;;;;;;;12.50;10.27;;;;;;;22.18;55.15;99969.78;10311487;28;21497;-72
2021/07/04 07:34:44;;;;;;;12.85;9.32;;;;;;;22.24;54.97;99967.06;10310419;28;20247;-71
2021/07/04 07:39:47;;;;;;;15.43;10.60;;;;;;;22.28;53.46;99959.25;10310255;28;20239;-71
2021/07/04 07:44:52;;;;;;;11.10;9.32;;;;;;;22.60;53.92;99963.03;10310770;28;20239;-72
2021/07/04 07:49:55;;;;;;;13.57;10.13;;;;;;;22.81;52.49;99956.44;10322663;28;20253;-73
2021/07/04 07:54:58;;;;;;;11.77;9.50;;;;;;;23.23;52.08;99956.97;10325938;28;20951;-74
2021/07/04 08:00:02;;;;;;;10.80;8.50;;;;;;;23.84;50.87;99955.56;10308961;28;20903;-74
2021/07/04 08:05:06;;;;;;;9.85;7.78;;;;;;;24.27;49.80;99963.88;10328382;28;20231;-74
2021/07/04 08:10:10;;;;;;;11.07;8.32;;;;;;;24.10;49.66;99962.75;10348137;28;20238;-75
2021/07/04 08:15:14;;;;;;;10.57;8.25;;;;;;;24.14;50.21;99955.75;10353019;28;20242;-73
2021/07/04 08:20:20;;;;;;;10.13;7.50;;;;;;;24.34;48.79;99958.31;10329321;28;20258;-73
2021/07/04 08:25:23;;;;;;;9.13;8.10;;;;;;;24.37;49.23;99949.63;10321012;28;20239;-73
2021/07/04 08:30:27;;;;;;;10.68;7.97;;;;;;;25.24;48.36;99944.06;10322442;28;20227;-74
2021/07/04 08:35:30;;;;;;;9.65;7.20;;;;;;;26.11;45.43;99927.13;10309840;28;20246;-74
2021/07/04 08:40:33;;;;;;;8.90;6.63;;;;;;;26.38;44.54;99921.16;10313023;28;20592;-74
2021/07/04 08:45:39;;;;;;;7.65;6.72;;;;;;;26.26;44.06;99913.75;10335940;28;20230;-75
2021/07/04 08:50:42;;;;;;;7.28;6.57;;;;;;;26.42;44.63;99920.44;10364670;28;20711;-75
2021/07/04 08:55:47;;;;;;;8.18;6.82;;;;;;;26.60;43.25;99916.69;10350114;28;20253;-74
2021/07/04 09:01:11;;;;;;;8.35;7.25;;;;;;;26.68;42.96;99904.47;10349933;28;20234;-74
2021/07/04 09:06:15;;;;;;;11.27;7.47;;;;;;;27.17;41.12;99904.97;10349167;28;20236;-75
2021/07/04 09:11:19;;;;;;;9.70;7.20;;;;;;;27.33;41.00;99886.81;10351275;28;20242;-75
2021/07/04 09:16:24;;;;;;;7.28;6.57;;;;;;;27.93;39.50;99883.47;10351043;28;20668;-74
2021/07/04 09:21:27;;;;;;;8.45;6.85;;;;;;;27.80;37.95;99881.88;10350638;28;20222;-74
2021/07/04 09:26:38;;;;;;;8.60;7.32;;;;;;;28.40;39.42;99885.03;10352182;28;20613;-73
2021/07/04 09:31:43;;;;;;;9.00;8.07;;;;;;;28.87;38.05;99888.16;10364485;28;20238;-75
2021/07/04 09:36:46;;;;;;;8.75;7.15;;;;;;;28.84;38.18;99882.31;10347538;28;20249;-74
2021/07/04 09:42:03;;;;;;;9.15;7.07;;;;;;;28.15;39.34;99877.22;10347671;28;20226;-74
2021/07/04 09:47:16;;;;;;;8.85;6.65;;;;;;;28.72;39.14;99865.88;10348978;28;20234;-75
2021/07/04 09:52:21;;;;;;;7.00;6.30;;;;;;;29.58;37.92;99854.91;10350193;28;20238;-74
2021/07/04 09:57:25;;;;;;;8.35;6.95;;;;;;;29.61;37.33;99855.53;10349294;28;20230;-76
2021/07/04 10:02:29;;;;;;;8.32;6.57;;;;;;;29.30;36.97;99855.22;10349124;28;20238;-75
2021/07/04 10:07:32;;;;;;;8.70;7.13;;;;;;;28.56;38.32;99853.78;10363314;28;20238;-74
2021/07/04 10:12:40;;;;;;;7.38;6.70;;;;;;;28.09;39.08;99850.63;10350215;28;20248;-74
2021/07/04 10:17:45;;;;;;;8.45;7.55;;;;;;;27.87;39.37;99845.00;10317584;28;20296;-74
2021/07/04 10:22:48;;;;;;;7.60;6.82;;;;;;;28.21;38.58;99830.06;10323309;28;20223;-76
2021/07/04 10:27:52;;;;;;;7.60;6.50;;;;;;;28.42;39.22;99822.91;10304430;28;20353;-74
2021/07/04 10:33:21;;;;;;;8.30;7.50;;;;;;;28.09;39.24;99823.00;10307666;28;20619;-73
2021/07/04 10:38:24;;;;;;;7.90;6.95;;;;;;;28.18;39.22;99815.97;10306717;28;20238;-73
2021/07/04 10:43:48;;;;;;;7.50;6.65;;;;;;;27.71;39.77;99806.13;10315012;28;20230;-73
2021/07/04 10:48:57;;;;;;;9.25;6.95;;;;;;;27.56;41.11;99794.84;10314063;28;20235;-74
2021/07/04 10:54:00;;;;;;;7.75;6.85;;;;;;;26.88;41.12;99789.22;10317835;28;20340;-73
2021/07/04 10:59:06;;;;;;;7.32;6.60;;;;;;;26.63;41.95;99783.19;10313538;28;20258;-73
2021/07/04 11:04:52;;;;;;;8.23;6.53;;;;;;;26.33;41.58;99780.63;10331044;28;20241;-74
2021/07/04 11:10:19;;;;;;;9.73;7.20;;;;;;;26.05;42.36;99780.31;10299401;28;20242;-74
2021/07/04 11:15:26;;;;;;;7.50;6.75;;;;;;;25.77;42.17;99780.19;10331696;28;20804;-74
2021/07/04 11:20:31;;;;;;;8.32;7.25;;;;;;;25.44;43.85;99761.50;10339093;28;20583;-74
2021/07/04 11:25:46;;;;;;;8.68;7.75;;;;;;;26.09;43.12;99755.91;10370319;28;20237;-73
2021/07/04 11:30:50;;;;;;;9.88;7.28;;;;;;;26.22;42.88;99754.78;10354031;28;20244;-75
2021/07/04 11:35:55;;;;;;;8.98;7.68;;;;;;;26.88;43.12;99739.63;10340204;28;20235;-75
2021/07/04 11:41:00;;;;;;;7.88;7.13;;;;;;;26.94;41.47;99735.88;10312265;28;20231;-75
2021/07/04 11:46:05;;;;;;;9.95;7.60;;;;;;;27.48;40.41;99721.66;10313493;28;20238;-74
2021/07/04 11:51:08;;;;;;;7.97;7.13;;;;;;;28.19;39.59;99709.94;10311718;28;20669;-75
2021/07/04 11:56:13;;;;;;;8.32;7.53;;;;;;;28.36;38.83;99702.44;10312896;28;20250;-74
2021/07/04 12:01:18;;;;;;;8.48;7.57;;;;;;;28.22;39.39;99703.91;10312913;28;20239;-75
2021/07/04 12:06:24;;;;;;;8.52;7.13;;;;;;;28.27;40.37;99698.44;10312228;28;20303;-74
2021/07/04 12:11:51;;;;;;;8.43;7.53;;;;;;;27.88;39.89;99692.13;10311042;28;20234;-74
2021/07/04 12:16:56;;;;;;;8.63;7.25;;;;;;;28.59;40.12;99687.53;10311767;28;20239;-74
2021/07/04 12:22:00;;;;;;;7.80;6.88;;;;;;;29.43;35.86;99666.69;10311301;28;20724;-73
2021/07/04 12:27:05;;;;;;;7.40;6.72;;;;;;;29.79;35.88;99669.69;10309359;28;20254;-74
2021/07/04 12:32:08;;;;;;;7.63;6.85;;;;;;;30.37;36.29;99676.03;10310089;28;20243;-75
2021/07/04 12:37:11;;;;;;;7.70;7.00;;;;;;;31.45;33.21;99662.25;10310425;28;20762;-74
2021/07/04 12:42:24;;;;;;;7.10;6.40;;;;;;;31.13;32.41;99669.78;10311457;28;20246;-74
2021/07/04 12:47:27;;;;;;;7.65;6.68;;;;;;;29.83;34.43;99665.28;10309225;28;20234;-74
2021/07/04 12:52:30;;;;;;;6.93;6.18;;;;;;;28.85;35.75;99663.75;10309317;28;20230;-74
2021/07/04 12:57:38;;;;;;;7.85;6.15;;;;;;;28.45;36.02;99662.22;10309108;28;20373;-75
2021/07/04 13:02:45;;;;;;;9.55;6.80;;;;;;;28.42;37.93;99657.22;10312402;28;20575;-73
2021/07/04 13:07:48;;;;;;;7.57;6.78;;;;;;;28.46;38.04;99658.34;10307883;28;20245;-74
2021/07/04 13:12:52;;;;;;;7.57;6.88;;;;;;;29.13;36.52;99653.50;10309646;28;20239;-73
2021/07/04 13:17:55;;;;;;;8.50;6.78;;;;;;;30.11;34.48;99652.91;10309464;28;20263;-73
2021/07/04 13:22:59;;;;;;;7.63;6.93;;;;;;;29.81;33.08;99657.25;10309543;28;20892;-73
2021/07/04 13:28:07;;;;;;;7.47;6.70;;;;;;;28.99;35.68;99658.59;10309444;28;20704;-73
2021/07/04 13:33:10;;;;;;;7.85;6.72;;;;;;;27.93;38.01;99639.78;10310362;28;20712;-74
2021/07/04 13:38:17;;;;;;;7.22;6.53;;;;;;;27.04;39.09;99643.44;10306453;28;20235;-73
2021/07/04 13:43:22;;;;;;;7.55;6.80;;;;;;;27.00;38.87;99637.59;10308098;28;20227;-73
2021/07/04 13:48:27;;;;;;;8.93;7.05;;;;;;;26.92;39.41;99635.28;10328221;28;20609;-74
2021/07/04 13:53:30;;;;;;;7.47;6.78;;;;;;;26.48;40.25;99630.34;10331264;28;20250;-74
2021/07/04 13:58:34;;;;;;;8.90;7.00;;;;;;;26.27;40.91;99626.41;10312507;28;20243;-74
2021/07/04 14:03:37;;;;;;;8.57;7.20;;;;;;;25.88;47.44;99618.97;10309475;28;20235;-74
2021/07/04 14:08:40;;;;;;;7.93;7.13;;;;;;;25.84;44.91;99622.22;10323349;28;20235;-73
2021/07/04 14:13:44;;;;;;;8.38;7.30;;;;;;;26.15;43.71;99613.75;10328210;28;20619;-73
2021/07/04 14:18:47;;;;;;;15.52;12.75;;;;;;;26.39;43.82;99603.50;10331658;28;20731;-74
2021/07/04 14:23:50;;;;;;;9.07;8.00;;;;;;;26.56;43.35;99603.50;10317304;28;20330;-74
2021/07/04 14:28:54;;;;;;;8.00;7.10;;;;;;;26.85;42.28;99601.53;10315202;28;20238;-74
2021/07/04 14:33:57;;;;;;;10.68;7.28;;;;;;;26.99;41.61;99602.88;10336662;28;20267;-74
2021/07/04 14:39:02;;;;;;;7.68;6.88;;;;;;;26.86;41.07;99606.81;10324806;28;20620;-74
2021/07/04 14:44:08;;;;;;;8.30;6.93;;;;;;;26.44;41.70;99609.91;10341770;28;20736;-74
2021/07/04 14:49:11;;;;;;;6.93;6.22;;;;;;;26.40;42.02;99602.41;10315193;28;20226;-73
2021/07/04 14:54:15;;;;;;;7.68;6.88;;;;;;;26.97;41.75;99595.94;10313002;28;20246;-75
2021/07/04 14:59:19;;;;;;;8.27;7.22;;;;;;;27.18;40.84;99593.25;10313448;28;20243;-74
2021/07/04 15:04:22;;;;;;;8.13;6.18;;;;;;;25.92;47.01;99634.75;10331007;28;20248;-74
2021/07/04 15:09:25;;;;;;;4.57;3.60;;;;;;;21.38;53.12;99666.41;10327760;28;20346;-75
2021/07/04 15:14:29;;;;;;;3.25;2.10;;;;;;;19.79;53.80;99667.75;10326638;28;20735;-73
2021/07/04 15:19:32;;;;;;;3.25;2.10;;;;;;;19.54;55.14;99669.25;10336179;28;20932;-72
2021/07/04 15:24:36;;;;;;;3.03;1.58;;;;;;;19.77;55.16;99666.25;10310951;28;20235;-72
2021/07/04 15:29:40;;;;;;;3.45;2.50;;;;;;;19.80;55.93;99639.47;10325628;28;20780;-72
2021/07/04 15:34:43;;;;;;;3.85;2.60;;;;;;;19.65;55.47;99638.75;10309564;28;20234;-72
2021/07/04 15:39:46;;;;;;;3.30;2.03;;;;;;;19.78;56.02;99630.66;10312133;28;20251;-72
2021/07/04 15:44:51;;;;;;;4.20;2.30;;;;;;;20.27;54.75;99647.81;10314084;28;20243;-73
2021/07/04 15:49:54;;;;;;;2.22;2.03;;;;;;;20.41;54.50;99671.38;10332828;28;20292;-72
2021/07/04 15:54:56;;;;;;;2.42;2.22;;;;;;;19.77;55.60;99698.97;10343871;28;20234;-73
2021/07/04 16:00:01;;;;;;;3.05;2.33;;;;;;;19.22;58.30;99707.78;10351447;28;20245;-72
2021/07/04 16:05:05;;;;;;;2.70;2.28;;;;;;;18.82;60.37;99730.25;10351974;28;20258;-72
2021/07/04 16:10:19;;;;;;;4.43;3.55;;;;;;;18.36;67.37;99751.25;10352167;28;20587;-73
2021/07/04 16:15:25;;;;;;;3.15;2.85;;;;;;;16.94;75.35;99768.44;10336429;28;20234;-72
2021/07/04 16:20:27;;;;;;;7.50;4.57;;;;;;;16.67;80.70;99789.63;10349216;28;20246;-72
2021/07/04 16:25:30;;;;;;;7.32;4.38;;;;;;;16.66;84.62;99787.13;10349311;28;20263;-72
2021/07/04 16:30:35;;;;;;;11.27;4.68;;;;;;;17.20;85.61;99795.28;10350862;28;20234;-73
2021/07/04 16:35:42;;;;;;;7.10;4.40;;;;;;;16.90;84.45;99770.69;10337878;28;20892;-73
2021/07/04 16:40:45;;;;;;;7.03;4.53;;;;;;;16.54;85.73;99755.00;10308785;28;20243;-73
2021/07/04 16:45:50;;;;;;;9.10;5.18;;;;;;;16.27;86.78;99750.06;10313436;28;20243;-73
2021/07/04 16:50:53;;;;;;;7.57;5.43;;;;;;;16.02;87.16;99728.47;10310337;28;20730;-73
2021/07/04 16:55:56;;;;;;;8.18;5.78;;;;;;;16.03;87.57;99724.72;10312356;28;20235;-73
2021/07/04 17:01:01;;;;;;;10.85;6.03;;;;;;;16.15;87.48;99715.22;10334429;28;20853;-72
2021/07/04 17:06:04;;;;;;;12.18;6.30;;;;;;;16.10;87.33;99709.47;10327992;28;20242;-73
2021/07/04 17:11:07;;;;;;;10.40;5.95;;;;;;;16.10;86.60;99706.75;10326348;28;20241;-72
2021/07/04 17:16:12;;;;;;;8.93;6.30;;;;;;;15.84;87.44;99695.34;10319435;28;20621;-72
2021/07/04 17:21:16;;;;;;;12.27;7.50;;;;;;;16.26;88.33;99680.63;10338925;28;21858;-73
2021/07/04 17:26:19;;;;;;;12.70;8.07;;;;;;;16.68;87.90;99695.59;10341060;28;20246;-72
2021/07/04 17:31:24;;;;;;;9.52;6.68;;;;;;;16.38;86.92;99692.75;10334502;28;20237;-72
2021/07/04 17:36:27;;;;;;;12.73;6.88;;;;;;;16.32;87.31;99707.03;10362335;28;20838;-72
2021/07/04 17:41:40;;;;;;;11.00;6.88;;;;;;;16.46;87.66;99708.97;10351023;28;20239;-72
2021/07/04 17:46:45;;;;;;;9.38;6.25;;;;;;;16.57;87.85;99724.81;10347900;28;20242;-73
2021/07/04 17:51:48;;;;;;;9.40;7.28;;;;;;;16.77;87.83;99719.75;10347587;28;20844;-72
2021/07/04 17:56:51;;;;;;;9.35;7.35;;;;;;;17.24;88.77;99718.72;10322564;28;20243;-72
2021/07/04 18:01:55;;;;;;;9.80;6.90;;;;;;;17.54;88.47;99712.50;10306682;28;20825;-72
2021/07/04 18:06:58;;;;;;;8.90;6.10;;;;;;;17.71;88.46;99716.69;10304219;28;20239;-72
2021/07/04 18:12:04;;;;;;;11.23;7.40;;;;;;;17.74;88.28;99721.75;10306275;28;20227;-72
2021/07/04 18:17:08;;;;;;;16.75;7.65;;;;;;;17.58;87.92;99717.38;10304701;28;20245;-73
2021/07/04 18:22:11;;;;;;;11.75;6.60;;;;;;;17.41;87.61;99713.13;10306651;28;20250;-72
2021/07/04 18:27:14;;;;;;;11.38;7.25;;;;;;;17.29;87.87;99704.59;10305156;28;21533;-72
2021/07/04 18:32:18;;;;;;;11.95;6.60;;;;;;;17.30;87.86;99700.00;10308784;28;20230;-73
2021/07/04 18:37:21;;;;;;;8.55;6.50;;;;;;;17.38;87.76;99705.34;10306341;28;20793;-72
2021/07/04 18:42:24;;;;;;;12.65;6.60;;;;;;;17.33;86.96;99716.75;10306727;28;20659;-73
2021/07/04 18:47:28;;;;;;;9.20;6.15;;;;;;;17.35;87.38;99711.16;10306500;28;20722;-72
2021/07/04 18:52:31;;;;;;;13.25;7.40;;;;;;;17.29;87.01;99711.91;10304772;28;20231;-73
2021/07/04 18:57:35;;;;;;;10.18;6.53;;;;;;;17.14;86.67;99712.72;10320895;28;20263;-72
2021/07/04 19:02:40;;;;;;;11.48;6.35;;;;;;;17.07;86.26;99703.59;10347096;28;20246;-73
2021/07/04 19:07:46;;;;;;;11.05;5.97;;;;;;;17.05;86.85;99705.63;10353206;28;20303;-72
2021/07/04 19:12:51;;;;;;;13.45;7.93;;;;;;;16.95;87.38;99700.47;10355385;28;20246;-72
2021/07/04 19:17:56;;;;;;;8.73;6.40;;;;;;;16.90;87.12;99699.34;10354607;28;20365;-72
2021/07/04 19:23:00;;;;;;;10.20;6.63;;;;;;;16.97;87.17;99706.53;10354611;28;20241;-72
2021/07/04 19:28:04;;;;;;;11.75;6.70;;;;;;;16.94;86.51;99701.47;10342767;28;20238;-72
2021/07/04 19:33:08;;;;;;;12.20;7.05;;;;;;;16.86;86.25;99725.97;10349190;28;20248;-72
2021/07/04 19:38:12;;;;;;;10.25;6.75;;;;;;;16.75;86.09;99727.22;10352659;28;20234;-72
2021/07/04 19:43:15;;;;;;;9.23;7.07;;;;;;;16.80;86.63;99738.38;10325127;28;20834;-72
2021/07/04 19:48:19;;;;;;;10.57;6.55;;;;;;;16.77;86.19;99755.00;10310596;28;20243;-72
2021/07/04 19:53:22;;;;;;;11.85;7.13;;;;;;;16.69;85.90;99770.50;10270257;28;20232;-71
2021/07/04 19:58:26;;;;;;;11.32;6.68;;;;;;;16.64;85.83;99779.16;10269564;28;20235;-72
2021/07/04 20:08:51;;;;;;;13.00;7.38;;;;;;;16.67;85.93;99780.66;10284817;28;20613;-71
2021/07/04 20:13:54;;;;;;;11.60;8.02;;;;;;;16.55;85.72;99797.34;10271174;28;20235;-72
2021/07/04 20:19:01;;;;;;;10.85;7.60;;;;;;;16.63;85.91;99801.88;10270563;28;20717;-72
2021/07/04 20:24:05;;;;;;;10.55;6.40;;;;;;;16.52;85.21;99811.25;10270839;28;20243;-72
2021/07/04 20:29:08;;;;;;;8.55;6.25;;;;;;;16.40;84.83;99818.09;10281686;28;20241;-72
2021/07/04 20:34:12;;;;;;;9.63;6.15;;;;;;;16.18;85.12;99827.81;10332181;28;21375;-73
2021/07/04 20:39:16;;;;;;;12.07;6.90;;;;;;;16.29;85.52;99827.47;10327565;28;20235;-72
2021/07/04 20:44:19;;;;;;;10.32;6.82;;;;;;;16.29;86.07;99824.75;10332623;28;20234;-73
2021/07/04 20:49:23;;;;;;;9.88;6.88;;;;;;;16.41;85.50;99819.78;10334073;28;20696;-73
2021/07/04 20:54:26;;;;;;;11.18;6.72;;;;;;;16.28;84.98;99817.63;10320509;28;20597;-73
2021/07/04 20:59:29;;;;;;;9.55;7.05;;;;;;;16.12;84.45;99814.94;10389353;28;20230;-73
2021/07/04 21:04:34;;;;;;;9.48;7.43;;;;;;;15.92;84.40;99818.03;10336225;28;20238;-73
2021/07/04 21:09:37;;;;;;;11.40;7.28;;;;;;;15.84;83.83;99828.03;10351369;28;20238;-73
2021/07/04 21:14:40;;;;;;;13.25;8.52;;;;;;;15.71;84.05;99833.97;10347177;28;20246;-73
2021/07/04 21:19:44;;;;;;;11.43;6.97;;;;;;;15.62;84.51;99838.56;10369239;28;20278;-73
2021/07/04 21:24:47;;;;;;;10.77;7.93;;;;;;;15.52;84.50;99843.28;10350220;28;20238;-73
2021/07/04 21:29:50;;;;;;;12.63;8.13;;;;;;;15.57;84.42;99845.50;10351204;28;20242;-73
2021/07/04 21:34:54;;;;;;;13.93;8.80;;;;;;;15.56;84.56;99847.38;10346077;28;20237;-73
2021/07/04 21:39:57;;;;;;;13.40;9.02;;;;;;;15.53;84.77;99850.41;10368154;28;20261;-72
2021/07/04 21:45:00;;;;;;;11.48;7.20;;;;;;;15.57;84.58;99849.06;10347836;28;20238;-73
2021/07/04 21:50:08;;;;;;;11.95;6.40;;;;;;;15.62;83.85;99849.38;10350412;28;20237;-72
2021/07/04 21:55:13;;;;;;;11.48;6.78;;;;;;;15.52;83.96;99848.72;10347727;28;20230;-72
2021/07/04 22:00:20;;;;;;;10.20;5.82;;;;;;;15.36;83.67;99848.72;10349947;28;20234;-72
2021/07/04 22:05:25;;;;;;;12.00;6.20;;;;;;;15.33;83.60;99851.72;10350263;28;20234;-72
2021/07/04 22:10:28;;;;;;;6.75;5.28;;;;;;;15.36;83.37;99844.16;10348709;28;20237;-73
2021/07/04 22:15:31;;;;;;;7.50;5.32;;;;;;;15.29;83.44;99839.56;10348912;28;20249;-72
2021/07/04 22:20:35;;;;;;;7.85;5.63;;;;;;;15.21;83.49;99832.28;10354550;28;20261;-72
2021/07/04 22:25:38;;;;;;;9.70;5.07;;;;;;;15.15;83.51;99847.31;10350481;28;20238;-72
2021/07/04 22:30:41;;;;;;;9.88;5.40;;;;;;;15.19;83.50;99840.56;10346542;28;20226;-72
2021/07/04 22:35:46;;;;;;;10.23;5.32;;;;;;;15.14;83.01;99842.06;10349615;28;20384;-72
2021/07/04 22:40:49;;;;;;;9.27;5.50;;;;;;;15.03;82.82;99840.56;10354431;28;20932;-72
2021/07/04 22:45:52;;;;;;;11.45;5.75;;;;;;;15.05;82.50;99841.22;10355456;28;20345;-72
2021/07/04 22:50:58;;;;;;;8.75;5.45;;;;;;;15.07;82.88;99844.59;10353205;28;20245;-72
2021/07/04 22:56:01;;;;;;;12.15;6.70;;;;;;;15.04;82.66;99843.06;10368381;28;20753;-73
2021/07/04 23:01:07;;;;;;;11.13;6.30;;;;;;;15.03;82.70;99848.66;10355426;28;20241;-73
2021/07/04 23:06:11;;;;;;;16.95;9.13;;;;;;;14.92;82.68;99846.25;10353516;28;20754;-72
2021/07/04 23:11:14;;;;;;;17.55;8.95;;;;;;;14.81;82.88;99859.09;10352911;28;21224;-73
2021/07/04 23:16:17;;;;;;;17.02;8.57;;;;;;;14.81;82.99;99847.44;10353855;28;20816;-73
2021/07/04 23:21:22;;;;;;;19.85;9.50;;;;;;;14.89;83.18;99844.75;10353936;28;20316;-72
2021/07/04 23:26:25;;;;;;;20.63;10.10;;;;;;;14.89;83.12;99846.59;10354436;28;21920;-73